sensor_id;sensor_type;location;lat;lon;timestamp;temperature;humidity
72591;SHT31;60625;51.212;5.952;2023-12-20T00:01:42;8.01;91.47
72591;SHT31;60625;51.212;5.952;2023-12-20T00:06:42;8.00;91.50
72591;SHT31;60625;51.212;5.952;2023-12-20T00:11:43;7.97;91.38
72591;SHT31;60625;51.212;5.952;2023-12-20T00:16:43;7.93;91.10
72591;SHT31;60625;51.212;5.952;2023-12-20T00:21:44;7.84;90.79
72591;SHT31;60625;51.212;5.952;2023-12-20T00:26:44;7.74;90.51
72591;SHT31;60625;51.212;5.952;2023-12-20T00:31:45;7.66;90.21
72591;SHT31;60625;51.212;5.952;2023-12-20T00:36:45;7.55;89.95
72591;SHT31;60625;51.212;5.952;2023-12-20T00:41:45;7.46;89.52
72591;SHT31;60625;51.212;5.952;2023-12-20T00:46:46;7.41;89.36
72591;SHT31;60625;51.212;5.952;2023-12-20T00:51:46;7.35;89.14
72591;SHT31;60625;51.212;5.952;2023-12-20T00:56:48;7.26;89.04
72591;SHT31;60625;51.212;5.952;2023-12-20T01:01:48;7.18;89.02
72591;SHT31;60625;51.212;5.952;2023-12-20T01:06:49;7.08;89.02
72591;SHT31;60625;51.212;5.952;2023-12-20T01:11:49;6.99;89.00
72591;SHT31;60625;51.212;5.952;2023-12-20T01:16:50;6.89;89.07
72591;SHT31;60625;51.212;5.952;2023-12-20T01:21:59;6.81;89.16
72591;SHT31;60625;51.212;5.952;2023-12-20T01:26:59;6.74;89.20
72591;SHT31;60625;51.212;5.952;2023-12-20T01:32:00;6.66;89.21
72591;SHT31;60625;51.212;5.952;2023-12-20T01:37:00;6.59;89.21
72591;SHT31;60625;51.212;5.952;2023-12-20T01:42:01;6.50;89.29
72591;SHT31;60625;51.212;5.952;2023-12-20T01:47:02;6.44;89.30
72591;SHT31;60625;51.212;5.952;2023-12-20T01:52:03;6.38;89.33
72591;SHT31;60625;51.212;5.952;2023-12-20T01:57:04;6.32;89.40
72591;SHT31;60625;51.212;5.952;2023-12-20T02:02:06;6.26;89.40
72591;SHT31;60625;51.212;5.952;2023-12-20T02:07:08;6.19;89.49
72591;SHT31;60625;51.212;5.952;2023-12-20T02:12:09;6.14;89.64
72591;SHT31;60625;51.212;5.952;2023-12-20T02:17:09;6.14;89.85
72591;SHT31;60625;51.212;5.952;2023-12-20T02:22:10;6.12;89.90
72591;SHT31;60625;51.212;5.952;2023-12-20T02:27:12;6.11;89.92
72591;SHT31;60625;51.212;5.952;2023-12-20T02:32:13;6.08;89.90
72591;SHT31;60625;51.212;5.952;2023-12-20T02:37:14;6.07;89.97
72591;SHT31;60625;51.212;5.952;2023-12-20T02:42:15;6.07;90.09
72591;SHT31;60625;51.212;5.952;2023-12-20T02:47:15;6.09;90.14
72591;SHT31;60625;51.212;5.952;2023-12-20T02:52:16;6.09;90.17
72591;SHT31;60625;51.212;5.952;2023-12-20T02:57:16;6.08;90.11
72591;SHT31;60625;51.212;5.952;2023-12-20T03:02:17;6.06;90.11
72591;SHT31;60625;51.212;5.952;2023-12-20T03:07:17;6.05;90.11
72591;SHT31;60625;51.212;5.952;2023-12-20T03:12:18;6.04;90.13
72591;SHT31;60625;51.212;5.952;2023-12-20T03:17:18;6.02;90.13
72591;SHT31;60625;51.212;5.952;2023-12-20T03:22:19;5.99;90.10
72591;SHT31;60625;51.212;5.952;2023-12-20T03:27:20;5.96;90.09
72591;SHT31;60625;51.212;5.952;2023-12-20T03:32:21;5.94;90.11
72591;SHT31;60625;51.212;5.952;2023-12-20T03:37:21;5.91;90.15
72591;SHT31;60625;51.212;5.952;2023-12-20T03:42:23;5.89;90.14
72591;SHT31;60625;51.212;5.952;2023-12-20T03:47:23;5.85;90.05
72591;SHT31;60625;51.212;5.952;2023-12-20T03:52:24;5.81;90.00
72591;SHT31;60625;51.212;5.952;2023-12-20T03:57:24;5.76;90.04
72591;SHT31;60625;51.212;5.952;2023-12-20T04:02:25;5.72;90.01
72591;SHT31;60625;51.212;5.952;2023-12-20T04:07:25;5.68;90.00
72591;SHT31;60625;51.212;5.952;2023-12-20T04:12:27;5.66;90.00
72591;SHT31;60625;51.212;5.952;2023-12-20T04:17:28;5.63;90.01
72591;SHT31;60625;51.212;5.952;2023-12-20T04:22:28;5.63;90.11
72591;SHT31;60625;51.212;5.952;2023-12-20T04:27:29;5.65;90.28
72591;SHT31;60625;51.212;5.952;2023-12-20T04:32:30;5.70;90.42
72591;SHT31;60625;51.212;5.952;2023-12-20T04:37:30;5.74;90.49
72591;SHT31;60625;51.212;5.952;2023-12-20T04:42:31;5.78;90.49
72591;SHT31;60625;51.212;5.952;2023-12-20T04:47:31;5.84;90.50
72591;SHT31;60625;51.212;5.952;2023-12-20T04:52:32;5.88;90.44
72591;SHT31;60625;51.212;5.952;2023-12-20T04:57:32;5.91;90.50
72591;SHT31;60625;51.212;5.952;2023-12-20T05:02:33;5.97;90.54
72591;SHT31;60625;51.212;5.952;2023-12-20T05:07:34;6.02;90.51
72591;SHT31;60625;51.212;5.952;2023-12-20T05:12:34;6.05;90.50
72591;SHT31;60625;51.212;5.952;2023-12-20T05:17:35;6.08;90.50
72591;SHT31;60625;51.212;5.952;2023-12-20T05:22:36;6.12;90.40
72591;SHT31;60625;51.212;5.952;2023-12-20T05:27:36;6.16;90.35
72591;SHT31;60625;51.212;5.952;2023-12-20T05:32:37;6.21;90.24
72591;SHT31;60625;51.212;5.952;2023-12-20T05:37:37;6.25;90.13
72591;SHT31;60625;51.212;5.952;2023-12-20T05:42:38;6.31;89.98
72591;SHT31;60625;51.212;5.952;2023-12-20T05:47:38;6.34;89.88
72591;SHT31;60625;51.212;5.952;2023-12-20T05:52:39;6.37;89.82
72591;SHT31;60625;51.212;5.952;2023-12-20T05:57:39;6.40;89.75
72591;SHT31;60625;51.212;5.952;2023-12-20T06:02:40;6.42;89.62
72591;SHT31;60625;51.212;5.952;2023-12-20T06:07:40;6.45;89.49
72591;SHT31;60625;51.212;5.952;2023-12-20T06:12:41;6.47;89.40
72591;SHT31;60625;51.212;5.952;2023-12-20T06:17:41;6.51;89.28
72591;SHT31;60625;51.212;5.952;2023-12-20T06:22:42;6.52;89.14
72591;SHT31;60625;51.212;5.952;2023-12-20T06:27:42;6.54;89.05
72591;SHT31;60625;51.212;5.952;2023-12-20T06:32:43;6.58;89.01
72591;SHT31;60625;51.212;5.952;2023-12-20T06:37:43;6.57;89.07
72591;SHT31;60625;51.212;5.952;2023-12-20T06:42:44;6.58;88.96
72591;SHT31;60625;51.212;5.952;2023-12-20T06:47:46;6.59;88.82
72591;SHT31;60625;51.212;5.952;2023-12-20T06:52:46;6.59;88.78
72591;SHT31;60625;51.212;5.952;2023-12-20T06:57:47;6.56;88.60
72591;SHT31;60625;51.212;5.952;2023-12-20T07:02:47;6.52;88.60
72591;SHT31;60625;51.212;5.952;2023-12-20T07:07:48;6.45;88.53
72591;SHT31;60625;51.212;5.952;2023-12-20T07:12:48;6.38;88.50
72591;SHT31;60625;51.212;5.952;2023-12-20T07:17:49;6.30;88.49
72591;SHT31;60625;51.212;5.952;2023-12-20T07:22:49;6.23;88.50
72591;SHT31;60625;51.212;5.952;2023-12-20T07:27:50;6.15;88.50
72591;SHT31;60625;51.212;5.952;2023-12-20T07:32:51;6.08;88.55
72591;SHT31;60625;51.212;5.952;2023-12-20T07:37:52;6.06;88.64
72591;SHT31;60625;51.212;5.952;2023-12-20T07:42:53;6.04;88.62
72591;SHT31;60625;51.212;5.952;2023-12-20T07:47:53;6.01;88.66
72591;SHT31;60625;51.212;5.952;2023-12-20T07:52:54;6.01;88.69
72591;SHT31;60625;51.212;5.952;2023-12-20T07:57:55;5.98;88.70
72591;SHT31;60625;51.212;5.952;2023-12-20T08:02:55;5.98;88.70
72591;SHT31;60625;51.212;5.952;2023-12-20T08:07:56;5.96;88.72
72591;SHT31;60625;51.212;5.952;2023-12-20T08:12:56;5.97;88.75
72591;SHT31;60625;51.212;5.952;2023-12-20T08:17:57;6.03;88.80
72591;SHT31;60625;51.212;5.952;2023-12-20T08:22:57;6.09;88.72
72591;SHT31;60625;51.212;5.952;2023-12-20T08:27:58;6.15;88.70
72591;SHT31;60625;51.212;5.952;2023-12-20T08:33:02;6.20;88.57
72591;SHT31;60625;51.212;5.952;2023-12-20T08:38:02;6.23;88.53
72591;SHT31;60625;51.212;5.952;2023-12-20T08:43:04;6.27;88.48
72591;SHT31;60625;51.212;5.952;2023-12-20T08:48:04;6.31;88.29
72591;SHT31;60625;51.212;5.952;2023-12-20T08:53:06;6.35;88.12
72591;SHT31;60625;51.212;5.952;2023-12-20T08:58:07;6.40;88.10
72591;SHT31;60625;51.212;5.952;2023-12-20T09:03:09;6.45;88.06
72591;SHT31;60625;51.212;5.952;2023-12-20T09:08:09;6.50;87.93
72591;SHT31;60625;51.212;5.952;2023-12-20T09:13:10;6.57;87.60
72591;SHT31;60625;51.212;5.952;2023-12-20T09:18:11;6.63;87.39
72591;SHT31;60625;51.212;5.952;2023-12-20T09:23:11;6.67;87.25
72591;SHT31;60625;51.212;5.952;2023-12-20T09:28:12;6.73;87.22
72591;SHT31;60625;51.212;5.952;2023-12-20T09:33:13;6.80;87.06
72591;SHT31;60625;51.212;5.952;2023-12-20T09:38:14;6.88;86.83
72591;SHT31;60625;51.212;5.952;2023-12-20T09:43:16;7.00;86.72
72591;SHT31;60625;51.212;5.952;2023-12-20T09:48:20;7.08;86.54
72591;SHT31;60625;51.212;5.952;2023-12-20T09:53:21;7.11;86.22
72591;SHT31;60625;51.212;5.952;2023-12-20T09:58:29;7.13;86.11
72591;SHT31;60625;51.212;5.952;2023-12-20T10:03:30;7.17;85.86
72591;SHT31;60625;51.212;5.952;2023-12-20T10:08:31;7.18;85.79
72591;SHT31;60625;51.212;5.952;2023-12-20T10:13:32;7.20;85.75
72591;SHT31;60625;51.212;5.952;2023-12-20T10:18:33;7.24;85.83
72591;SHT31;60625;51.212;5.952;2023-12-20T10:23:33;7.27;85.82
72591;SHT31;60625;51.212;5.952;2023-12-20T10:28:34;7.31;85.94
72591;SHT31;60625;51.212;5.952;2023-12-20T10:33:35;7.32;85.85
72591;SHT31;60625;51.212;5.952;2023-12-20T10:38:36;7.33;85.74
72591;SHT31;60625;51.212;5.952;2023-12-20T10:43:40;7.34;85.55
72591;SHT31;60625;51.212;5.952;2023-12-20T10:48:41;7.35;85.61
72591;SHT31;60625;51.212;5.952;2023-12-20T10:53:43;7.37;85.71
72591;SHT31;60625;51.212;5.952;2023-12-20T10:58:46;7.38;85.51
72591;SHT31;60625;51.212;5.952;2023-12-20T11:03:51;7.39;85.28
72591;SHT31;60625;51.212;5.952;2023-12-20T11:08:55;7.37;85.09
72591;SHT31;60625;51.212;5.952;2023-12-20T11:14:20;7.38;85.07
72591;SHT31;60625;51.212;5.952;2023-12-20T11:19:27;7.39;85.06
72591;SHT31;60625;51.212;5.952;2023-12-20T11:24:28;7.39;85.21
72591;SHT31;60625;51.212;5.952;2023-12-20T11:29:32;7.40;85.45
72591;SHT31;60625;51.212;5.952;2023-12-20T11:34:37;7.39;85.59
72591;SHT31;60625;51.212;5.952;2023-12-20T11:39:37;7.40;85.71
72591;SHT31;60625;51.212;5.952;2023-12-20T11:44:37;7.41;85.82
72591;SHT31;60625;51.212;5.952;2023-12-20T11:49:38;7.42;85.93
72591;SHT31;60625;51.212;5.952;2023-12-20T11:54:38;7.45;85.89
72591;SHT31;60625;51.212;5.952;2023-12-20T11:59:39;7.49;85.88
72591;SHT31;60625;51.212;5.952;2023-12-20T12:04:43;7.52;85.93
72591;SHT31;60625;51.212;5.952;2023-12-20T12:09:45;7.54;85.93
72591;SHT31;60625;51.212;5.952;2023-12-20T12:14:46;7.55;85.97
72591;SHT31;60625;51.212;5.952;2023-12-20T12:19:49;7.56;85.85
72591;SHT31;60625;51.212;5.952;2023-12-20T12:24:49;7.60;85.96
72591;SHT31;60625;51.212;5.952;2023-12-20T12:29:59;7.64;86.13
72591;SHT31;60625;51.212;5.952;2023-12-20T12:35:07;7.66;86.29
72591;SHT31;60625;51.212;5.952;2023-12-20T12:40:10;7.69;86.32
72591;SHT31;60625;51.212;5.952;2023-12-20T12:45:16;7.72;86.42
72591;SHT31;60625;51.212;5.952;2023-12-20T12:50:16;7.72;86.48
72591;SHT31;60625;51.212;5.952;2023-12-20T12:55:17;7.72;86.59
72591;SHT31;60625;51.212;5.952;2023-12-20T13:00:17;7.71;86.54
72591;SHT31;60625;51.212;5.952;2023-12-20T13:05:19;7.71;86.68
72591;SHT31;60625;51.212;5.952;2023-12-20T13:10:20;7.71;86.90
72591;SHT31;60625;51.212;5.952;2023-12-20T13:15:21;7.72;87.15
72591;SHT31;60625;51.212;5.952;2023-12-20T13:20:21;7.74;87.25
72591;SHT31;60625;51.212;5.952;2023-12-20T13:25:22;7.75;87.38
72591;SHT31;60625;51.212;5.952;2023-12-20T13:30:22;7.76;87.39
72591;SHT31;60625;51.212;5.952;2023-12-20T13:35:23;7.78;87.39
72591;SHT31;60625;51.212;5.952;2023-12-20T13:40:24;7.81;87.40
72591;SHT31;60625;51.212;5.952;2023-12-20T13:45:24;7.84;87.35
72591;SHT31;60625;51.212;5.952;2023-12-20T13:50:25;7.88;87.30
72591;SHT31;60625;51.212;5.952;2023-12-20T13:55:26;7.89;87.27
72591;SHT31;60625;51.212;5.952;2023-12-20T14:00:27;7.89;87.25
72591;SHT31;60625;51.212;5.952;2023-12-20T14:05:28;7.91;87.28
72591;SHT31;60625;51.212;5.952;2023-12-20T14:10:29;7.93;87.34
72591;SHT31;60625;51.212;5.952;2023-12-20T14:15:30;7.92;87.57
72591;SHT31;60625;51.212;5.952;2023-12-20T14:20:30;7.92;87.74
72591;SHT31;60625;51.212;5.952;2023-12-20T14:25:31;7.93;87.80
72591;SHT31;60625;51.212;5.952;2023-12-20T14:30:32;7.93;87.80
72591;SHT31;60625;51.212;5.952;2023-12-20T14:35:32;7.94;87.80
72591;SHT31;60625;51.212;5.952;2023-12-20T14:40:33;7.95;87.76
72591;SHT31;60625;51.212;5.952;2023-12-20T14:45:34;7.96;87.63
72591;SHT31;60625;51.212;5.952;2023-12-20T14:50:34;7.97;87.50
72591;SHT31;60625;51.212;5.952;2023-12-20T14:55:36;7.97;87.40
72591;SHT31;60625;51.212;5.952;2023-12-20T15:00:37;7.96;87.40
72591;SHT31;60625;51.212;5.952;2023-12-20T15:05:38;7.95;87.31
72591;SHT31;60625;51.212;5.952;2023-12-20T15:10:39;7.93;87.30
72591;SHT31;60625;51.212;5.952;2023-12-20T15:15:40;7.92;87.21
72591;SHT31;60625;51.212;5.952;2023-12-20T15:20:40;7.91;87.19
72591;SHT31;60625;51.212;5.952;2023-12-20T15:25:42;7.91;87.15
72591;SHT31;60625;51.212;5.952;2023-12-20T15:30:42;7.89;87.21
72591;SHT31;60625;51.212;5.952;2023-12-20T15:35:43;7.90;87.24
72591;SHT31;60625;51.212;5.952;2023-12-20T15:40:44;7.91;87.21
72591;SHT31;60625;51.212;5.952;2023-12-20T15:45:44;7.93;87.20
72591;SHT31;60625;51.212;5.952;2023-12-20T15:50:46;7.93;87.19
72591;SHT31;60625;51.212;5.952;2023-12-20T15:55:46;7.93;87.17
72591;SHT31;60625;51.212;5.952;2023-12-20T16:00:46;7.96;87.19
72591;SHT31;60625;51.212;5.952;2023-12-20T16:05:47;7.97;87.11
72591;SHT31;60625;51.212;5.952;2023-12-20T16:10:48;7.98;87.08
72591;SHT31;60625;51.212;5.952;2023-12-20T16:15:48;8.00;87.01
72591;SHT31;60625;51.212;5.952;2023-12-20T16:20:49;8.01;86.96
72591;SHT31;60625;51.212;5.952;2023-12-20T16:25:49;8.03;86.97
72591;SHT31;60625;51.212;5.952;2023-12-20T16:30:49;8.02;86.99
72591;SHT31;60625;51.212;5.952;2023-12-20T16:35:51;8.03;87.02
72591;SHT31;60625;51.212;5.952;2023-12-20T16:40:52;8.04;87.08
72591;SHT31;60625;51.212;5.952;2023-12-20T16:45:52;8.07;87.04
72591;SHT31;60625;51.212;5.952;2023-12-20T16:50:52;8.10;87.10
72591;SHT31;60625;51.212;5.952;2023-12-20T16:55:53;8.11;87.07
72591;SHT31;60625;51.212;5.952;2023-12-20T17:00:54;8.13;87.09
72591;SHT31;60625;51.212;5.952;2023-12-20T17:05:55;8.14;87.09
72591;SHT31;60625;51.212;5.952;2023-12-20T17:10:55;8.14;87.07
72591;SHT31;60625;51.212;5.952;2023-12-20T17:15:56;8.16;87.01
72591;SHT31;60625;51.212;5.952;2023-12-20T17:20:56;8.17;87.04
72591;SHT31;60625;51.212;5.952;2023-12-20T17:25:57;8.19;86.88
72591;SHT31;60625;51.212;5.952;2023-12-20T17:30:57;8.21;86.83
72591;SHT31;60625;51.212;5.952;2023-12-20T17:35:58;8.20;86.71
72591;SHT31;60625;51.212;5.952;2023-12-20T17:40:59;8.19;86.71
72591;SHT31;60625;51.212;5.952;2023-12-20T17:45:59;8.21;86.73
72591;SHT31;60625;51.212;5.952;2023-12-20T17:51:00;8.24;86.62
72591;SHT31;60625;51.212;5.952;2023-12-20T17:56:01;8.26;86.60
72591;SHT31;60625;51.212;5.952;2023-12-20T18:01:02;8.30;86.51
72591;SHT31;60625;51.212;5.952;2023-12-20T18:06:04;8.34;86.43
72591;SHT31;60625;51.212;5.952;2023-12-20T18:11:04;8.38;86.50
72591;SHT31;60625;51.212;5.952;2023-12-20T18:16:05;8.39;86.76
72591;SHT31;60625;51.212;5.952;2023-12-20T18:21:09;8.41;86.89
72591;SHT31;60625;51.212;5.952;2023-12-20T18:26:10;8.43;86.84
72591;SHT31;60625;51.212;5.952;2023-12-20T18:31:10;8.46;86.89
72591;SHT31;60625;51.212;5.952;2023-12-20T18:36:11;8.50;86.98
72591;SHT31;60625;51.212;5.952;2023-12-20T18:41:11;8.51;87.04
72591;SHT31;60625;51.212;5.952;2023-12-20T18:46:15;8.52;87.18
72591;SHT31;60625;51.212;5.952;2023-12-20T18:51:15;8.51;87.51
72591;SHT31;60625;51.212;5.952;2023-12-20T18:56:16;8.51;87.77
72591;SHT31;60625;51.212;5.952;2023-12-20T19:01:17;8.51;87.78
72591;SHT31;60625;51.212;5.952;2023-12-20T19:06:18;8.54;87.60
72591;SHT31;60625;51.212;5.952;2023-12-20T19:11:19;8.57;87.48
72591;SHT31;60625;51.212;5.952;2023-12-20T19:16:19;8.59;87.35
72591;SHT31;60625;51.212;5.952;2023-12-20T19:21:20;8.62;87.30
72591;SHT31;60625;51.212;5.952;2023-12-20T19:26:21;8.64;87.27
72591;SHT31;60625;51.212;5.952;2023-12-20T19:31:21;8.67;87.31
72591;SHT31;60625;51.212;5.952;2023-12-20T19:36:22;8.69;87.41
72591;SHT31;60625;51.212;5.952;2023-12-20T19:41:23;8.70;87.51
72591;SHT31;60625;51.212;5.952;2023-12-20T19:46:24;8.73;87.54
72591;SHT31;60625;51.212;5.952;2023-12-20T19:51:25;8.73;87.69
72591;SHT31;60625;51.212;5.952;2023-12-20T19:56:26;8.73;87.93
72591;SHT31;60625;51.212;5.952;2023-12-20T20:01:26;8.71;88.35
72591;SHT31;60625;51.212;5.952;2023-12-20T20:06:27;8.68;88.80
72591;SHT31;60625;51.212;5.952;2023-12-20T20:11:28;8.65;89.00
72591;SHT31;60625;51.212;5.952;2023-12-20T20:16:29;8.63;89.18
72591;SHT31;60625;51.212;5.952;2023-12-20T20:21:29;8.63;89.21
72591;SHT31;60625;51.212;5.952;2023-12-20T20:26:30;8.64;89.14
72591;SHT31;60625;51.212;5.952;2023-12-20T20:31:30;8.65;89.12
72591;SHT31;60625;51.212;5.952;2023-12-20T20:36:35;8.65;89.13
72591;SHT31;60625;51.212;5.952;2023-12-20T20:41:36;8.66;89.08
72591;SHT31;60625;51.212;5.952;2023-12-20T20:46:37;8.68;89.00
72591;SHT31;60625;51.212;5.952;2023-12-20T20:51:37;8.68;88.96
72591;SHT31;60625;51.212;5.952;2023-12-20T20:56:37;8.69;88.90
72591;SHT31;60625;51.212;5.952;2023-12-20T21:01:38;8.70;88.86
72591;SHT31;60625;51.212;5.952;2023-12-20T21:06:39;8.72;88.78
72591;SHT31;60625;51.212;5.952;2023-12-20T21:11:40;8.74;88.69
72591;SHT31;60625;51.212;5.952;2023-12-20T21:16:41;8.77;88.57
72591;SHT31;60625;51.212;5.952;2023-12-20T21:21:42;8.79;88.51
72591;SHT31;60625;51.212;5.952;2023-12-20T21:26:43;8.81;88.50
72591;SHT31;60625;51.212;5.952;2023-12-20T21:31:43;8.83;88.44
72591;SHT31;60625;51.212;5.952;2023-12-20T21:36:44;8.85;88.31
72591;SHT31;60625;51.212;5.952;2023-12-20T21:41:44;8.90;88.07
72591;SHT31;60625;51.212;5.952;2023-12-20T21:46:45;8.93;88.00
72591;SHT31;60625;51.212;5.952;2023-12-20T21:51:46;8.95;88.12
72591;SHT31;60625;51.212;5.952;2023-12-20T21:56:46;8.95;88.36
72591;SHT31;60625;51.212;5.952;2023-12-20T22:01:48;8.92;88.76
72591;SHT31;60625;51.212;5.952;2023-12-20T22:06:49;8.90;89.04
72591;SHT31;60625;51.212;5.952;2023-12-20T22:11:49;8.87;89.31
72591;SHT31;60625;51.212;5.952;2023-12-20T22:16:50;8.84;89.61
72591;SHT31;60625;51.212;5.952;2023-12-20T22:21:50;8.81;89.94
72591;SHT31;60625;51.212;5.952;2023-12-20T22:26:50;8.79;90.26
72591;SHT31;60625;51.212;5.952;2023-12-20T22:31:53;8.78;90.50
72591;SHT31;60625;51.212;5.952;2023-12-20T22:36:54;8.79;90.50
72591;SHT31;60625;51.212;5.952;2023-12-20T22:41:54;8.80;90.68
72591;SHT31;60625;51.212;5.952;2023-12-20T22:46:55;8.81;90.83
72591;SHT31;60625;51.212;5.952;2023-12-20T22:51:55;8.84;91.01
72591;SHT31;60625;51.212;5.952;2023-12-20T22:56:56;8.84;91.18
72591;SHT31;60625;51.212;5.952;2023-12-20T23:01:56;8.86;91.33
72591;SHT31;60625;51.212;5.952;2023-12-20T23:06:57;8.87;91.50
72591;SHT31;60625;51.212;5.952;2023-12-20T23:11:57;8.88;91.50
72591;SHT31;60625;51.212;5.952;2023-12-20T23:16:58;8.90;91.53
72591;SHT31;60625;51.212;5.952;2023-12-20T23:21:58;8.92;91.64
72591;SHT31;60625;51.212;5.952;2023-12-20T23:26:59;8.94;91.60
72591;SHT31;60625;51.212;5.952;2023-12-20T23:31:59;8.96;91.66
72591;SHT31;60625;51.212;5.952;2023-12-20T23:37:00;8.99;91.67
72591;SHT31;60625;51.212;5.952;2023-12-20T23:42:00;9.02;91.62
72591;SHT31;60625;51.212;5.952;2023-12-20T23:47:01;9.04;91.54
72591;SHT31;60625;51.212;5.952;2023-12-20T23:52:02;9.07;91.57
72591;SHT31;60625;51.212;5.952;2023-12-20T23:57:03;9.09;91.50
